Time;durP1;ratioP1;P1;durP2;ratioP2;P2;SDS_P1;SDS_P2;PMS_P1;PMS_P2;Temp;Humidity;BMP_temperature;BMP_pressure;BME280_temperature;BME280_humidity;BME280_pressure;Samples;Min_cycle;Max_cycle;Signal;HPM_P1;HPM_P2
2023/12/07 00:02:17;;;;;;;44.85;27.80;;;3.60;99.90;;;;;;5080460;28;20248;-80
2023/12/07 00:04:54;;;;;;;44.33;29.15;;;3.70;99.90;;;;;;5082874;28;20265;-79
2023/12/07 00:07:27;;;;;;;39.47;27.10;;;3.70;99.90;;;;;;5083388;28;20227;-80
2023/12/07 00:10:01;;;;;;;47.53;31.10;;;3.60;99.90;;;;;;5068804;28;20202;-81
2023/12/07 00:12:42;;;;;;;43.78;29.00;;;3.60;99.90;;;;;;5085081;28;20200;-81
2023/12/07 00:15:16;;;;;;;46.17;30.50;;;3.50;99.90;;;;;;5094730;28;20210;-82
2023/12/07 00:20:41;;;;;;;44.90;29.45;;;3.60;99.90;;;;;;5068851;28;20588;-84
2023/12/07 00:23:23;;;;;;;40.92;28.42;;;3.60;99.90;;;;;;5075553;28;20210;-80
2023/12/07 00:26:02;;;;;;;43.92;30.25;;;3.60;99.90;;;;;;5087385;28;20215;-81
2023/12/07 00:31:41;;;;;;;40.72;26.13;;;3.50;99.90;;;;;;5067853;28;20211;-80
2023/12/07 00:34:31;;;;;;;45.53;30.77;;;3.50;99.90;;;;;;5058548;28;20203;-81
2023/12/07 00:37:54;;;;;;;38.80;26.23;;;3.60;99.90;;;;;;5074791;28;20268;-82
2023/12/07 00:43:38;;;;;;;39.47;26.83;;;3.80;99.90;;;;;;5069788;28;20202;-81
2023/12/07 00:46:26;;;;;;;43.05;28.50;;;3.80;99.90;;;;;;5079965;28;20215;-81
2023/12/07 00:48:56;;;;;;;41.72;29.70;;;3.90;99.90;;;;;;5086548;28;20204;-80
2023/12/07 00:51:26;;;;;;;41.28;27.00;;;4.00;99.90;;;;;;5074298;28;20283;-82
2023/12/07 00:53:58;;;;;;;36.75;26.75;;;3.80;99.90;;;;;;5085749;28;20222;-81
2023/12/07 00:56:31;;;;;;;49.63;27.98;;;3.80;99.90;;;;;;5074746;28;20215;-82
2023/12/07 00:59:08;;;;;;;42.35;28.70;;;3.50;99.90;;;;;;5084298;28;20199;-82
2023/12/07 01:01:38;;;;;;;35.60;26.17;;;3.70;99.90;;;;;;5075688;28;20211;-84
2023/12/07 01:04:06;;;;;;;37.65;27.30;;;3.60;99.90;;;;;;5086887;28;20206;-82
2023/12/07 01:06:33;;;;;;;38.30;25.88;;;3.70;99.90;;;;;;5086543;28;20218;-82
2023/12/07 01:09:00;;;;;;;40.33;27.77;;;3.70;99.90;;;;;;5088841;28;20225;-81
2023/12/07 01:11:27;;;;;;;49.75;29.10;;;3.80;99.90;;;;;;5074204;28;20199;-81
2023/12/07 01:13:54;;;;;;;41.53;26.92;;;3.70;99.90;;;;;;5090509;28;20208;-79
2023/12/07 01:16:21;;;;;;;37.55;27.15;;;3.60;99.90;;;;;;5087022;28;20282;-81
2023/12/07 01:18:49;;;;;;;43.45;27.40;;;3.60;99.90;;;;;;5088963;28;20234;-80
2023/12/07 01:21:16;;;;;;;41.80;25.70;;;3.60;99.90;;;;;;5073781;28;20234;-80
2023/12/07 01:23:43;;;;;;;37.28;25.80;;;3.60;99.90;;;;;;5087484;28;20434;-81
2023/12/07 01:26:11;;;;;;;44.35;30.30;;;3.70;99.90;;;;;;5084927;28;20230;-81
2023/12/07 01:28:38;;;;;;;40.72;28.33;;;3.50;99.90;;;;;;5092548;28;20199;-82
2023/12/07 01:31:05;;;;;;;43.28;27.65;;;3.70;99.90;;;;;;5079501;28;20254;-82
2023/12/07 01:33:32;;;;;;;39.80;26.50;;;3.70;99.90;;;;;;5087072;28;20200;-81
2023/12/07 01:36:01;;;;;;;44.40;29.30;;;3.80;99.90;;;;;;5091429;28;20227;-81
2023/12/07 01:38:28;;;;;;;41.95;28.02;;;3.80;99.90;;;;;;5081539;28;20203;-81
2023/12/07 01:40:55;;;;;;;44.50;30.08;;;3.80;99.90;;;;;;5093067;28;20700;-79
2023/12/07 01:43:24;;;;;;;40.30;28.20;;;3.80;99.90;;;;;;5082880;28;20200;-79
2023/12/07 01:45:53;;;;;;;37.88;27.25;;;3.80;99.90;;;;;;5098537;28;20209;-80
2023/12/07 01:48:26;;;;;;;39.63;26.83;;;3.60;99.90;;;;;;5083586;28;20192;-80
2023/12/07 01:50:54;;;;;;;44.10;28.95;;;3.60;99.90;;;;;;5081446;28;20199;-79
2023/12/07 01:53:24;;;;;;;43.88;29.02;;;3.60;99.90;;;;;;5086920;28;20204;-79
2023/12/07 01:55:53;;;;;;;40.55;27.40;;;3.60;99.90;;;;;;5087750;28;20420;-79
2023/12/07 01:58:21;;;;;;;44.50;27.65;;;3.60;99.90;;;;;;5090888;28;20226;-80
2023/12/07 02:00:51;;;;;;;39.40;27.42;;;3.60;99.90;;;;;;5085198;28;20257;-79
2023/12/07 02:03:18;;;;;;;43.50;27.23;;;3.70;99.90;;;;;;5092243;28;20198;-81
2023/12/07 02:05:49;;;;;;;41.42;29.60;;;3.60;99.90;;;;;;5091275;28;20219;-81
2023/12/07 02:08:16;;;;;;;40.58;27.23;;;3.60;99.90;;;;;;5088765;28;20501;-79
2023/12/07 02:10:46;;;;;;;36.33;26.67;;;3.70;99.90;;;;;;5078654;28;20234;-80
2023/12/07 02:13:13;;;;;;;35.38;25.92;;;3.80;99.90;;;;;;5095107;28;20287;-79
2023/12/07 02:15:40;;;;;;;35.42;25.13;;;3.70;99.90;;;;;;5091627;28;20223;-82
2023/12/07 02:18:12;;;;;;;38.83;27.77;;;3.80;99.90;;;;;;5082788;28;20224;-82
2023/12/07 02:20:45;;;;;;;36.75;25.95;;;3.90;99.90;;;;;;5088211;28;20223;-81
2023/12/07 02:23:17;;;;;;;40.70;26.55;;;3.80;99.90;;;;;;5070388;28;20234;-81
2023/12/07 02:26:29;;;;;;;42.55;26.10;;;3.90;99.90;;;;;;5085335;28;20238;-81
2023/12/07 02:28:58;;;;;;;41.47;25.20;;;3.70;99.90;;;;;;5079663;28;20207;-81
2023/12/07 02:31:25;;;;;;;40.05;25.50;;;3.80;99.90;;;;;;5070494;28;20191;-80
2023/12/07 02:33:55;;;;;;;36.67;24.50;;;3.80;99.90;;;;;;5077266;28;20209;-81
2023/12/07 02:36:25;;;;;;;39.55;27.00;;;3.70;99.90;;;;;;5077979;28;20262;-80
2023/12/07 02:38:56;;;;;;;36.13;22.77;;;3.70;99.90;;;;;;5081983;28;20206;-81
2023/12/07 02:41:25;;;;;;;31.05;22.33;;;3.80;99.90;;;;;;5079063;28;20207;-79
2023/12/07 02:43:52;;;;;;;37.25;26.33;;;3.90;99.90;;;;;;5083828;28;20721;-80
2023/12/07 02:46:21;;;;;;;35.78;24.73;;;3.80;99.90;;;;;;5079792;28;20505;-80
2023/12/07 02:48:47;;;;;;;31.65;24.35;;;3.90;99.90;;;;;;5076459;28;20208;-80
2023/12/07 02:51:14;;;;;;;37.00;26.13;;;3.80;99.90;;;;;;5084259;28;20230;-81
2023/12/07 02:53:41;;;;;;;34.72;25.35;;;3.90;99.90;;;;;;5088870;28;20195;-81
2023/12/07 02:56:09;;;;;;;48.28;27.63;;;3.90;99.90;;;;;;5073896;28;20234;-80
2023/12/07 02:58:36;;;;;;;35.30;26.73;;;3.90;99.90;;;;;;5071668;28;20244;-78
2023/12/07 03:01:06;;;;;;;39.50;25.58;;;3.90;99.90;;;;;;5082023;28;20277;-81
2023/12/07 03:03:34;;;;;;;35.38;25.73;;;3.80;99.90;;;;;;5077625;28;20675;-81
2023/12/07 03:06:02;;;;;;;37.63;26.45;;;3.70;99.90;;;;;;5085161;28;20223;-82
2023/12/07 03:08:29;;;;;;;38.17;23.45;;;3.70;99.90;;;;;;5084098;28;20273;-82
2023/12/07 03:10:56;;;;;;;40.15;26.80;;;3.70;99.90;;;;;;5078049;28;20298;-80
2023/12/07 03:13:23;;;;;;;37.08;25.33;;;3.70;99.90;;;;;;5077802;28;20618;-80
2023/12/07 03:15:53;;;;;;;38.65;25.50;;;3.80;99.90;;;;;;5084831;28;20217;-82
2023/12/07 03:18:21;;;;;;;36.85;24.80;;;3.80;99.90;;;;;;5087176;28;20262;-80
2023/12/07 03:20:53;;;;;;;35.78;25.50;;;3.80;99.90;;;;;;5092684;28;20214;-79
2023/12/07 03:23:25;;;;;;;31.38;23.40;;;3.80;99.90;;;;;;5066021;28;20226;-80
2023/12/07 03:25:58;;;;;;;39.03;25.75;;;3.80;99.90;;;;;;5077435;28;20227;-80
2023/12/07 03:28:27;;;;;;;34.80;24.30;;;3.90;99.90;;;;;;5082289;28;20195;-81
2023/12/07 03:31:01;;;;;;;38.17;25.17;;;3.70;99.90;;;;;;5080352;28;20199;-82
2023/12/07 03:33:41;;;;;;;37.05;24.90;;;3.70;99.90;;;;;;5071626;28;20580;-82
2023/12/07 03:36:29;;;;;;;36.90;26.00;;;3.90;99.90;;;;;;5079672;28;20237;-81
2023/12/07 03:39:18;;;;;;;35.42;25.08;;;3.70;99.90;;;;;;5067213;28;20683;-81
2023/12/07 03:44:34;;;;;;;35.67;24.40;;;3.70;99.90;;;;;;5077051;28;20247;-80
2023/12/07 03:47:17;;;;;;;35.65;25.20;;;3.70;99.90;;;;;;5066543;28;20227;-81
2023/12/07 03:49:56;;;;;;;41.05;26.48;;;3.70;99.90;;;;;;5074130;28;20333;-82
2023/12/07 03:52:59;;;;;;;38.58;26.67;;;3.60;99.90;;;;;;5081320;28;20442;-81
2023/12/07 03:55:41;;;;;;;33.20;23.95;;;3.80;99.90;;;;;;5068310;28;20203;-81
2023/12/07 03:58:16;;;;;;;33.85;24.75;;;3.80;99.90;;;;;;5071717;28;20219;-82
2023/12/07 04:00:52;;;;;;;38.17;25.70;;;3.70;99.90;;;;;;5089234;28;20222;-82
2023/12/07 04:03:19;;;;;;;45.20;26.30;;;3.80;99.90;;;;;;5078324;28;20203;-81
2023/12/07 04:05:51;;;;;;;38.03;26.10;;;3.70;99.90;;;;;;5070139;28;20227;-81
2023/12/07 04:08:27;;;;;;;34.45;23.73;;;3.70;99.90;;;;;;5076767;28;20617;-81
2023/12/07 04:10:54;;;;;;;31.77;23.15;;;3.70;99.90;;;;;;5055841;28;20208;-80
2023/12/07 04:13:21;;;;;;;36.85;24.58;;;3.70;99.90;;;;;;5079465;28;20254;-79
2023/12/07 04:15:48;;;;;;;26.92;20.85;;;3.90;99.90;;;;;;5081747;28;20224;-80
2023/12/07 04:18:16;;;;;;;32.58;22.80;;;4.00;99.90;;;;;;5074674;28;20195;-79
2023/12/07 04:20:43;;;;;;;30.33;20.35;;;4.00;99.90;;;;;;5071389;28;20219;-80
2023/12/07 04:23:10;;;;;;;35.22;22.77;;;4.00;99.90;;;;;;5068403;28;20198;-80
2023/12/07 04:25:38;;;;;;;29.35;22.55;;;3.90;99.90;;;;;;5074911;28;20222;-80
2023/12/07 04:28:05;;;;;;;32.92;25.23;;;3.90;99.90;;;;;;5076730;28;20245;-80
2023/12/07 04:30:32;;;;;;;34.20;24.40;;;3.90;99.90;;;;;;5079833;28;20207;-78
2023/12/07 04:33:00;;;;;;;34.33;23.08;;;4.00;99.90;;;;;;5077708;28;20207;-81
2023/12/07 04:35:28;;;;;;;33.90;24.33;;;3.90;99.90;;;;;;5069170;28;20204;-81
2023/12/07 04:37:55;;;;;;;32.22;23.92;;;3.90;99.90;;;;;;5073079;28;20203;-82
2023/12/07 04:40:29;;;;;;;31.37;21.57;;;3.70;99.90;;;;;;5071574;28;20603;-80
2023/12/07 04:42:57;;;;;;;32.08;23.45;;;3.80;99.90;;;;;;5080728;28;20536;-81
2023/12/07 04:45:28;;;;;;;32.95;22.63;;;3.90;99.90;;;;;;5078815;28;20230;-81
2023/12/07 04:47:57;;;;;;;28.40;20.25;;;3.90;99.90;;;;;;5075203;28;20237;-80
2023/12/07 04:50:24;;;;;;;28.77;21.27;;;3.80;99.90;;;;;;5089552;28;20241;-82
2023/12/07 04:52:51;;;;;;;32.38;23.20;;;4.20;99.90;;;;;;5081667;28;20225;-81
2023/12/07 04:55:18;;;;;;;34.58;23.98;;;4.10;99.90;;;;;;5084711;28;20689;-81
2023/12/07 04:57:45;;;;;;;28.92;21.17;;;4.00;99.90;;;;;;5081058;28;20199;-81
2023/12/07 05:00:16;;;;;;;36.78;25.40;;;3.90;99.90;;;;;;5079260;28;20294;-79
2023/12/07 05:02:48;;;;;;;34.17;21.55;;;4.00;99.90;;;;;;5081278;28;20202;-79
2023/12/07 05:05:18;;;;;;;35.85;23.10;;;3.90;99.90;;;;;;5092473;28;20230;-81
2023/12/07 05:07:46;;;;;;;37.50;25.58;;;3.90;99.90;;;;;;5085594;28;20195;-79
2023/12/07 05:10:20;;;;;;;34.72;23.90;;;3.80;99.90;;;;;;5091366;28;20255;-82
2023/12/07 05:12:56;;;;;;;36.10;25.45;;;3.80;99.90;;;;;;5091348;28;20294;-80
2023/12/07 05:15:25;;;;;;;32.97;23.48;;;3.80;99.90;;;;;;5086342;28;20195;-79
2023/12/07 05:20:45;;;;;;;34.00;23.17;;;3.80;99.90;;;;;;5091494;28;20223;-81
2023/12/07 05:23:15;;;;;;;34.92;22.55;;;3.80;99.90;;;;;;5079376;28;20237;-80
2023/12/07 05:31:18;;;;;;;31.75;23.02;;;3.80;99.90;;;;;;5088397;28;20212;-79
2023/12/07 05:33:51;;;;;;;36.63;23.25;;;3.80;99.90;;;;;;5091246;28;20229;-79
2023/12/07 05:36:34;;;;;;;32.15;22.02;;;3.90;99.90;;;;;;5084304;28;20556;-79
2023/12/07 05:39:08;;;;;;;40.45;25.08;;;3.80;99.90;;;;;;5085907;28;20195;-79
2023/12/07 05:41:36;;;;;;;32.20;21.65;;;3.70;99.90;;;;;;5093818;28;20212;-80
2023/12/07 05:44:10;;;;;;;34.70;22.30;;;3.80;99.90;;;;;;5086529;28;20208;-79
2023/12/07 05:46:44;;;;;;;34.40;23.48;;;3.80;99.90;;;;;;5078415;28;20319;-82
2023/12/07 05:49:13;;;;;;;36.63;24.08;;;3.70;99.90;;;;;;5081228;28;20286;-79
2023/12/07 05:51:50;;;;;;;35.08;24.02;;;3.70;99.90;;;;;;5086358;28;20199;-82
2023/12/07 05:54:28;;;;;;;36.35;24.40;;;3.60;99.90;;;;;;5077360;28;20203;-81
2023/12/07 05:56:55;;;;;;;38.03;23.92;;;3.70;99.90;;;;;;5082092;28;20274;-81
2023/12/07 05:59:30;;;;;;;39.10;23.60;;;3.70;99.90;;;;;;5081341;28;20254;-80
2023/12/07 06:04:41;;;;;;;35.40;21.20;;;3.80;99.90;;;;;;5066186;28;20207;-79
2023/12/07 06:07:19;;;;;;;34.90;22.88;;;3.70;99.90;;;;;;5074632;28;20709;-80
2023/12/07 06:12:56;;;;;;;41.22;22.95;;;3.70;99.90;;;;;;5066992;28;20204;-79
2023/12/07 06:18:27;;;;;;;31.20;22.80;;;3.90;99.90;;;;;;5080284;28;21026;-80
2023/12/07 06:20:54;;;;;;;35.47;23.80;;;3.90;99.90;;;;;;5083318;28;20215;-78
2023/12/07 06:23:21;;;;;;;34.67;22.35;;;3.80;99.90;;;;;;5071662;28;20230;-80
2023/12/07 06:25:49;;;;;;;33.70;24.42;;;3.80;99.90;;;;;;5080056;28;20226;-79
2023/12/07 06:28:16;;;;;;;34.47;23.92;;;3.80;99.90;;;;;;5070838;28;20203;-80
2023/12/07 06:30:43;;;;;;;36.08;23.90;;;3.80;99.90;;;;;;5069466;28;20241;-79
2023/12/07 06:33:10;;;;;;;39.38;26.85;;;3.80;99.90;;;;;;5078266;28;20201;-79
2023/12/07 06:35:38;;;;;;;36.47;26.05;;;3.80;99.90;;;;;;5078999;28;20231;-79
2023/12/07 06:38:05;;;;;;;36.53;25.40;;;3.70;99.90;;;;;;5069378;28;20231;-78
2023/12/07 06:40:34;;;;;;;34.65;24.08;;;3.70;99.90;;;;;;5074761;28;20203;-81
2023/12/07 06:43:01;;;;;;;36.40;24.13;;;3.70;99.90;;;;;;5073151;28;20211;-79
2023/12/07 06:45:28;;;;;;;33.03;22.33;;;3.70;99.90;;;;;;5071294;28;20620;-80
2023/12/07 06:48:41;;;;;;;35.08;22.73;;;3.70;99.90;;;;;;5067171;28;20254;-87
2023/12/07 06:57:40;;;;;;;33.35;22.70;;;3.60;99.90;;;;;;5079014;23;20622;-73
2023/12/07 07:00:10;;;;;;;35.95;22.55;;;3.60;99.90;;;;;;5068930;28;20244;-72
2023/12/07 07:02:38;;;;;;;34.90;23.17;;;3.60;99.90;;;;;;5073298;28;20567;-73
2023/12/07 07:05:05;;;;;;;35.65;23.20;;;3.60;99.90;;;;;;5076722;28;20225;-71
2023/12/07 07:07:32;;;;;;;33.35;24.10;;;3.60;99.90;;;;;;5092312;28;20195;-71
2023/12/07 07:09:59;;;;;;;31.77;23.50;;;3.70;99.90;;;;;;5089072;28;20202;-73
2023/12/07 07:12:29;;;;;;;35.75;22.58;;;3.70;99.90;;;;;;5090068;28;20195;-72
2023/12/07 07:14:57;;;;;;;36.42;24.80;;;3.70;99.90;;;;;;5089281;28;20699;-74
2023/12/07 07:17:24;;;;;;;34.67;22.25;;;3.70;99.90;;;;;;5092464;28;20730;-73
2023/12/07 07:19:51;;;;;;;33.97;23.13;;;3.80;99.90;;;;;;5082210;28;20244;-71
2023/12/07 07:22:18;;;;;;;29.75;21.23;;;3.90;99.90;;;;;;5088819;28;20298;-69
2023/12/07 07:24:45;;;;;;;28.63;21.73;;;4.00;99.90;;;;;;5088690;28;20605;-72
2023/12/07 07:27:12;;;;;;;34.20;23.50;;;4.00;99.90;;;;;;5085585;28;20230;-71
2023/12/07 07:29:39;;;;;;;38.38;22.27;;;4.10;99.90;;;;;;5086290;28;20199;-71
2023/12/07 07:32:08;;;;;;;33.15;23.88;;;4.10;99.90;;;;;;5090006;28;20291;-72
2023/12/07 07:34:35;;;;;;;29.27;20.65;;;4.10;99.90;;;;;;5085732;28;20218;-75
2023/12/07 07:37:02;;;;;;;27.95;20.63;;;4.20;99.90;;;;;;5087026;28;20261;-74
2023/12/07 07:39:29;;;;;;;36.15;23.48;;;4.10;99.90;;;;;;5092658;28;20672;-70
2023/12/07 07:41:56;;;;;;;34.35;24.25;;;4.10;99.90;;;;;;5086845;28;20388;-69
2023/12/07 07:44:23;;;;;;;34.03;22.17;;;4.20;99.90;;;;;;5079526;28;20849;-71
2023/12/07 07:46:50;;;;;;;32.55;23.60;;;4.10;99.90;;;;;;5082279;28;20283;-71
2023/12/07 07:49:18;;;;;;;27.85;21.05;;;4.10;99.90;;;;;;5086556;28;20609;-72
2023/12/07 07:51:45;;;;;;;33.63;22.20;;;4.10;99.90;;;;;;5089886;28;20198;-71
2023/12/07 07:54:12;;;;;;;26.95;19.77;;;4.20;99.90;;;;;;5087529;28;20694;-74
2023/12/07 07:56:39;;;;;;;35.13;24.05;;;4.20;99.90;;;;;;5082592;28;20269;-74
2023/12/07 07:59:06;;;;;;;31.27;21.15;;;4.30;99.90;;;;;;5087619;28;20256;-74
2023/12/07 08:01:33;;;;;;;34.88;22.50;;;4.30;99.90;;;;;;5083957;28;20250;-73
2023/12/07 08:04:00;;;;;;;36.65;22.88;;;4.20;99.90;;;;;;5080941;28;20211;-71
2023/12/07 08:06:28;;;;;;;29.60;21.67;;;4.20;99.90;;;;;;5087383;28;20202;-69
2023/12/07 08:08:55;;;;;;;27.63;20.35;;;4.20;99.90;;;;;;5083136;28;20245;-70
2023/12/07 08:11:22;;;;;;;41.30;20.65;;;4.20;99.90;;;;;;5085529;28;20198;-73
2023/12/07 08:13:50;;;;;;;30.65;20.67;;;4.30;99.90;;;;;;5082149;28;20261;-72
2023/12/07 08:16:17;;;;;;;38.10;22.27;;;4.40;99.90;;;;;;5091117;28;20207;-72
2023/12/07 08:18:47;;;;;;;30.15;20.35;;;4.40;99.90;;;;;;5088288;28;20656;-72
2023/12/07 08:21:20;;;;;;;29.15;20.02;;;4.40;99.90;;;;;;5079786;28;20620;-69
2023/12/07 08:23:48;;;;;;;29.80;19.63;;;4.40;99.90;;;;;;5085902;28;20238;-69
2023/12/07 08:26:16;;;;;;;32.40;23.02;;;4.30;99.90;;;;;;5081623;28;20652;-71
2023/12/07 08:28:43;;;;;;;29.10;18.42;;;4.40;99.90;;;;;;5083928;28;20599;-76
2023/12/07 08:31:11;;;;;;;33.58;23.05;;;4.40;99.90;;;;;;5084342;28;20615;-74
2023/12/07 08:33:40;;;;;;;30.95;22.38;;;4.30;99.90;;;;;;5085244;28;20297;-72
2023/12/07 08:36:09;;;;;;;25.60;20.13;;;4.30;99.90;;;;;;5088662;28;20232;-72
2023/12/07 08:38:36;;;;;;;32.80;22.83;;;4.40;99.90;;;;;;5089431;28;20201;-71
2023/12/07 08:41:05;;;;;;;34.03;21.42;;;4.50;99.90;;;;;;5078904;28;20276;-70
2023/12/07 08:43:32;;;;;;;33.58;21.42;;;4.20;99.90;;;;;;5083508;28;20679;-73
2023/12/07 08:45:59;;;;;;;28.38;21.23;;;4.30;99.90;;;;;;5092371;28;20222;-70
2023/12/07 08:48:26;;;;;;;31.67;22.80;;;4.30;99.90;;;;;;5084973;28;20262;-70
2023/12/07 08:50:52;;;;;;;33.28;22.70;;;4.30;99.90;;;;;;5091417;28;20734;-71
2023/12/07 08:53:19;;;;;;;30.67;20.42;;;4.40;99.90;;;;;;5090442;28;20217;-69
2023/12/07 08:55:46;;;;;;;32.63;22.00;;;4.40;99.90;;;;;;5092113;28;20229;-70
2023/12/07 08:58:15;;;;;;;28.48;20.92;;;4.40;99.90;;;;;;5088999;28;20202;-69
2023/12/07 09:00:42;;;;;;;30.70;20.15;;;4.30;99.90;;;;;;5086987;28;20206;-68
2023/12/07 09:03:09;;;;;;;31.67;24.60;;;4.30;99.90;;;;;;5090692;28;20225;-71
2023/12/07 09:05:36;;;;;;;29.13;19.25;;;4.40;99.90;;;;;;5085528;28;20283;-71
2023/12/07 09:08:24;;;;;;;37.97;20.60;;;4.30;99.90;;;;;;5095525;28;20268;-70
2023/12/07 09:10:51;;;;;;;33.78;21.42;;;4.30;99.90;;;;;;5091617;28;20618;-72
2023/12/07 09:13:19;;;;;;;31.42;21.80;;;4.20;99.90;;;;;;5096638;28;20709;-73
2023/12/07 09:15:46;;;;;;;30.00;22.40;;;4.20;99.90;;;;;;5094897;28;20336;-71
2023/12/07 09:18:13;;;;;;;34.13;22.13;;;4.10;99.90;;;;;;5094872;28;20615;-71
2023/12/07 09:20:45;;;;;;;34.33;24.17;;;4.10;99.90;;;;;;5086646;28;20202;-69
2023/12/07 09:23:12;;;;;;;35.45;24.25;;;4.10;99.90;;;;;;5094477;28;20279;-70
2023/12/07 09:25:40;;;;;;;37.10;25.55;;;4.00;99.90;;;;;;5096180;28;20226;-69
2023/12/07 09:28:08;;;;;;;41.28;23.65;;;3.90;99.90;;;;;;5091428;28;20534;-69
2023/12/07 09:30:36;;;;;;;37.03;24.20;;;3.90;99.90;;;;;;5090710;28;20206;-69
2023/12/07 09:33:04;;;;;;;41.03;26.08;;;4.00;99.90;;;;;;5095403;28;20612;-72
2023/12/07 09:35:31;;;;;;;27.73;20.55;;;3.90;99.90;;;;;;5086601;28;20221;-71
2023/12/07 09:37:58;;;;;;;35.03;22.50;;;4.00;99.90;;;;;;5090852;28;20213;-70
2023/12/07 09:40:27;;;;;;;34.55;21.58;;;4.10;99.90;;;;;;5095340;28;20202;-72
2023/12/07 09:42:54;;;;;;;39.55;24.08;;;4.20;99.90;;;;;;5091474;28;20317;-72
2023/12/07 09:45:22;;;;;;;29.02;19.80;;;4.20;99.90;;;;;;5089892;28;20227;-70
2023/12/07 09:47:52;;;;;;;40.40;21.10;;;4.20;99.90;;;;;;5091643;28;20648;-70
2023/12/07 09:50:21;;;;;;;25.75;19.23;;;4.20;99.90;;;;;;5094167;28;20210;-69
2023/12/07 09:52:49;;;;;;;34.70;22.00;;;4.30;99.90;;;;;;5094660;28;20576;-69
2023/12/07 09:55:17;;;;;;;34.35;20.50;;;4.30;99.90;;;;;;5095340;27;20227;-70
2023/12/07 09:57:45;;;;;;;33.15;22.52;;;4.30;99.90;;;;;;5086554;28;20252;-70
2023/12/07 10:00:14;;;;;;;28.63;19.23;;;4.30;99.90;;;;;;5094064;28;20286;-70
2023/12/07 10:02:42;;;;;;;31.33;19.40;;;4.30;99.90;;;;;;5088421;28;20228;-72
2023/12/07 10:05:13;;;;;;;26.95;19.98;;;4.30;99.90;;;;;;5094209;28;20474;-69
2023/12/07 10:07:42;;;;;;;26.27;20.25;;;4.40;99.90;;;;;;5086596;28;20199;-74
2023/12/07 10:10:11;;;;;;;29.52;20.58;;;4.30;99.90;;;;;;5083676;28;20257;-71
2023/12/07 10:12:46;;;;;;;39.03;20.75;;;4.40;99.90;;;;;;5089923;28;20265;-70
2023/12/07 10:15:14;;;;;;;31.40;21.45;;;4.40;99.90;;;;;;5085224;28;20700;-69
2023/12/07 10:17:49;;;;;;;41.03;21.98;;;4.40;99.90;;;;;;5091141;28;20203;-69
2023/12/07 10:20:19;;;;;;;30.48;20.75;;;4.30;99.90;;;;;;5080489;28;20198;-69
2023/12/07 10:22:47;;;;;;;27.20;19.48;;;4.40;99.90;;;;;;5086901;28;20287;-71
2023/12/07 10:25:15;;;;;;;30.98;20.65;;;4.50;99.90;;;;;;5093958;28;20282;-70
2023/12/07 10:27:43;;;;;;;28.55;19.50;;;4.50;99.90;;;;;;5077674;28;20292;-69
2023/12/07 10:30:12;;;;;;;29.23;19.80;;;4.50;99.90;;;;;;5088594;28;20677;-68
2023/12/07 10:32:39;;;;;;;22.60;16.40;;;4.50;99.90;;;;;;5083437;28;20543;-70
2023/12/07 10:35:08;;;;;;;28.02;21.75;;;4.60;99.90;;;;;;5093941;28;20230;-70
2023/12/07 10:37:37;;;;;;;25.33;19.80;;;4.60;99.90;;;;;;5090114;28;20254;-72
2023/12/07 10:40:07;;;;;;;26.65;17.98;;;4.60;99.90;;;;;;5082509;28;20248;-70
2023/12/07 10:42:36;;;;;;;28.50;20.20;;;4.70;99.90;;;;;;5081358;28;20245;-68
2023/12/07 10:45:06;;;;;;;28.10;21.92;;;4.80;99.90;;;;;;5083025;28;20645;-70
2023/12/07 10:47:37;;;;;;;25.73;19.52;;;4.80;99.90;;;;;;5086449;28;20302;-69
2023/12/07 10:50:10;;;;;;;26.48;16.58;;;4.80;99.90;;;;;;5082639;28;20310;-68
2023/12/07 10:52:44;;;;;;;28.77;18.05;;;4.90;99.90;;;;;;5084618;28;20498;-71
2023/12/07 10:55:17;;;;;;;27.75;19.40;;;5.10;99.90;;;;;;5080848;28;20281;-71
2023/12/07 10:57:46;;;;;;;22.48;17.98;;;5.20;99.90;;;;;;5087883;28;20203;-70
2023/12/07 11:00:14;;;;;;;23.10;18.00;;;5.30;99.90;;;;;;5087809;28;20211;-69
2023/12/07 11:02:42;;;;;;;22.92;17.60;;;5.30;99.90;;;;;;5079803;28;20304;-69
2023/12/07 11:05:10;;;;;;;27.60;18.92;;;5.40;99.90;;;;;;5088559;28;20299;-69
2023/12/07 11:07:48;;;;;;;21.30;17.25;;;5.40;99.90;;;;;;5085314;28;20489;-70
2023/12/07 11:10:23;;;;;;;22.65;17.70;;;5.50;99.90;;;;;;5086294;28;20205;-68
2023/12/07 11:13:00;;;;;;;21.00;16.58;;;5.60;99.90;;;;;;5084419;28;20230;-71
2023/12/07 11:15:28;;;;;;;19.50;17.05;;;5.60;99.90;;;;;;5084934;28;20230;-69
2023/12/07 11:17:56;;;;;;;24.33;16.83;;;5.70;99.90;;;;;;5086557;28;20252;-71
2023/12/07 11:20:40;;;;;;;21.02;16.67;;;5.60;99.90;;;;;;5086343;28;20238;-71
2023/12/07 11:23:08;;;;;;;27.90;18.30;;;5.60;99.90;;;;;;5092154;28;20222;-70
2023/12/07 11:25:35;;;;;;;22.48;16.08;;;5.50;99.90;;;;;;5087876;28;20222;-71
2023/12/07 11:28:03;;;;;;;24.55;19.08;;;5.60;99.90;;;;;;5084705;28;20214;-70
2023/12/07 11:30:35;;;;;;;24.55;18.45;;;5.50;99.90;;;;;;5082198;28;20285;-69
2023/12/07 11:33:05;;;;;;;21.40;17.15;;;5.60;99.90;;;;;;5088784;28;20194;-74
2023/12/07 11:35:32;;;;;;;23.25;17.40;;;5.60;99.90;;;;;;5091813;28;20249;-73
2023/12/07 11:38:07;;;;;;;23.02;16.55;;;5.60;99.90;;;;;;5090643;28;20263;-70
2023/12/07 11:40:36;;;;;;;28.65;16.98;;;5.60;99.90;;;;;;5086489;28;20685;-70
2023/12/07 11:43:05;;;;;;;28.92;18.90;;;5.70;99.90;;;;;;5084294;28;20266;-72
2023/12/07 11:45:42;;;;;;;24.90;17.80;;;5.60;99.90;;;;;;5084549;28;20230;-71
2023/12/07 11:48:15;;;;;;;27.88;19.58;;;5.60;99.90;;;;;;5088246;28;20217;-73
2023/12/07 11:50:59;;;;;;;26.15;19.05;;;5.70;99.90;;;;;;5088792;28;20210;-72
2023/12/07 11:53:29;;;;;;;26.92;18.77;;;5.60;99.90;;;;;;5084354;28;20537;-72
2023/12/07 11:55:58;;;;;;;21.67;17.95;;;5.60;99.90;;;;;;5088774;28;20237;-68
2023/12/07 11:58:26;;;;;;;26.08;16.90;;;5.70;99.90;;;;;;5085865;28;20244;-72
2023/12/07 12:00:56;;;;;;;24.38;18.45;;;5.80;99.90;;;;;;5089247;28;20230;-74
2023/12/07 12:03:24;;;;;;;24.98;17.48;;;5.90;99.90;;;;;;5086030;28;20248;-68
2023/12/07 12:05:51;;;;;;;22.13;16.77;;;5.90;99.90;;;;;;5090626;28;20224;-68
2023/12/07 12:08:20;;;;;;;25.25;19.67;;;5.80;99.90;;;;;;5085634;28;20233;-69
2023/12/07 12:10:49;;;;;;;22.38;17.85;;;5.70;99.90;;;;;;5086527;28;20275;-70
2023/12/07 12:13:18;;;;;;;25.38;21.30;;;5.80;99.90;;;;;;5081688;28;20199;-69
2023/12/07 12:15:47;;;;;;;29.27;21.20;;;5.80;99.90;;;;;;5087735;28;20222;-70
2023/12/07 12:18:16;;;;;;;27.17;19.63;;;5.80;99.90;;;;;;5081116;28;20207;-70
2023/12/07 12:20:52;;;;;;;27.08;18.40;;;5.80;99.90;;;;;;5085277;28;20206;-72
2023/12/07 12:23:19;;;;;;;23.67;18.52;;;5.90;99.90;;;;;;5088021;28;20225;-70
2023/12/07 12:25:46;;;;;;;23.42;18.23;;;5.80;99.90;;;;;;5092643;28;20785;-75
2023/12/07 12:28:19;;;;;;;30.40;19.55;;;5.80;99.90;;;;;;5089979;28;20605;-71
2023/12/07 12:30:46;;;;;;;29.08;19.05;;;5.70;99.90;;;;;;5087461;28;20289;-70
2023/12/07 12:33:14;;;;;;;24.23;19.10;;;5.80;99.90;;;;;;5091788;28;22378;-69
2023/12/07 12:35:41;;;;;;;26.52;18.92;;;5.70;99.90;;;;;;5083587;28;20318;-70
2023/12/07 12:38:11;;;;;;;37.97;25.00;;;5.70;99.90;;;;;;5086872;28;20480;-70
2023/12/07 12:40:38;;;;;;;25.83;19.67;;;5.60;99.90;;;;;;5085449;28;20376;-70
2023/12/07 12:43:06;;;;;;;31.10;20.40;;;5.70;99.90;;;;;;5075537;28;20229;-70
2023/12/07 12:45:35;;;;;;;23.60;18.05;;;5.80;99.90;;;;;;5091139;28;20215;-72
2023/12/07 12:48:02;;;;;;;25.05;17.63;;;5.60;99.90;;;;;;5083768;28;20244;-72
2023/12/07 12:50:38;;;;;;;31.80;17.92;;;5.70;99.90;;;;;;5085445;28;20300;-69
2023/12/07 12:53:06;;;;;;;31.95;22.02;;;5.80;99.90;;;;;;5084285;28;20228;-68
2023/12/07 12:55:36;;;;;;;30.55;22.15;;;5.90;99.90;;;;;;5083173;28;20268;-70
2023/12/07 12:58:04;;;;;;;24.35;19.08;;;5.80;99.90;;;;;;5085977;28;20658;-70
2023/12/07 13:00:32;;;;;;;26.65;19.35;;;5.80;99.90;;;;;;5075662;28;20290;-69
2023/12/07 13:03:01;;;;;;;28.40;20.27;;;5.70;99.90;;;;;;5084912;28;20223;-68
2023/12/07 13:05:28;;;;;;;27.98;19.25;;;5.60;99.90;;;;;;5090028;28;20340;-70
2023/12/07 13:07:56;;;;;;;34.92;21.35;;;5.60;99.90;;;;;;5089753;28;20215;-67
2023/12/07 13:10:23;;;;;;;27.67;20.17;;;5.40;99.90;;;;;;5089005;28;20215;-72
2023/12/07 13:12:50;;;;;;;32.33;22.20;;;5.40;99.90;;;;;;5091336;28;20258;-71
2023/12/07 13:15:17;;;;;;;27.33;19.00;;;5.30;99.90;;;;;;5085455;28;20237;-70
2023/12/07 13:17:44;;;;;;;30.02;22.15;;;5.30;99.90;;;;;;5082809;28;20230;-69
2023/12/07 13:20:14;;;;;;;30.02;22.73;;;5.30;99.90;;;;;;5083546;28;20207;-70
2023/12/07 13:22:43;;;;;;;27.25;19.20;;;5.20;99.90;;;;;;5083145;28;20250;-71
2023/12/07 13:25:10;;;;;;;35.13;23.50;;;5.20;99.90;;;;;;5089159;28;20585;-72
2023/12/07 13:27:37;;;;;;;31.45;23.77;;;5.30;99.90;;;;;;5083848;28;20216;-69